BBC Weser — V2CB2 — position and weather

sailwx.info

Track history (hours):
 
Tides and Currents Weather Stations Pressure Air Temp Water Temp Dewpoint Dewpoint Depression Visibility Wind Speed Wind Dir Waves Ship Positions

BBC Weser

Last reported at 2018-Jan-24 11:02 UTC. Time now 2018-Feb-23 22:03 UTC.
Position N 23°50' E 119°55'.
Warning: this ship's position is 30 days out of date.

Length 143 m; draft 8.8 m.

Type: Ship. MMSI: 304968000.

Date/timePositionNaut miles runAvg speedWind from/ knotsBaromVisibWave heightAir tempDewpointWater temp
2018-Jan-24 11:02N 23°50' E 119°55'0 6.5
2018-Jan-24 11:00N 23°50' E 119°55'4 7.3
2018-Jan-24 10:30N 23°46' E 119°55'4 7.2
2018-Jan-24 10:00N 23°42' E 119°55'8 8.7
2018-Jan-24 09:02N 23°34' E 119°55'0 9.9
2018-Jan-24 09:00N 23°34' E 119°55'711.0
2018-Jan-24 08:21N 23°26' E 119°54'511.9
2018-Jan-24 07:58N 23°22' E 119°53'  
2018-Jan-19 07:16N 01°16' E 104°10'514.7
2018-Jan-19 06:55N 01°15' E 104°05'613.8
2018-Jan-19 06:30N 01°14' E 103°59'5 9.1
2018-Jan-19 05:57N 01°15' E 103°54'2 1.1
2018-Jan-19 04:29N 01°16' E 103°53'0 0.1
2018-Jan-19 03:50N 01°16' E 103°53'0 0.1
2018-Jan-19 03:14N 01°16' E 103°53'0 0.0
2018-Jan-19 02:56N 01°16' E 103°53'0 0.0
2018-Jan-19 02:26N 01°16' E 103°53'0 0.0
2018-Jan-19 01:53N 01°16' E 103°53'0 0.0
2018-Jan-19 01:20N 01°16' E 103°53'0 0.0
2018-Jan-19 00:50N 01°16' E 103°53'0 0.0
2018-Jan-19 00:14N 01°16' E 103°53'0 0.0
2018-Jan-18 23:59N 01°16' E 103°53'0 0.0
2018-Jan-18 23:02N 01°16' E 103°53'0 0.0
2018-Jan-18 22:53N 01°16' E 103°53'0 0.0
2018-Jan-18 21:38N 01°16' E 103°53'0 0.0
2018-Jan-18 21:29N 01°16' E 103°53'0 0.0
2018-Jan-18 20:59N 01°16' E 103°53'0 0.0
2018-Jan-18 19:50N 01°16' E 103°53'0 0.0
2018-Jan-18 19:29N 01°16' E 103°53'0 0.0
2018-Jan-18 18:56N 01°16' E 103°53'0 0.0
2018-Jan-18 18:20N 01°16' E 103°53'0 0.0
2018-Jan-18 17:59N 01°16' E 103°53'0 0.0
2018-Jan-18 16:50N 01°16' E 103°53'0 0.0
2018-Jan-18 16:26N 01°16' E 103°53'0 0.0
2018-Jan-18 15:44N 01°16' E 103°53'0 0.0
2018-Jan-18 14:50N 01°16' E 103°53'0 0.0
2018-Jan-18 13:56N 01°16' E 103°53'0 0.0
2018-Jan-18 13:26N 01°16' E 103°53'0 0.0
2018-Jan-18 12:56N 01°16' E 103°53'0 0.1
2018-Jan-18 11:11N 01°16' E 103°53'0 0.1
2018-Jan-18 10:38N 01°16' E 103°53'0 0.1
2018-Jan-18 10:26N 01°16' E 103°53'0 0.8
2018-Jan-18 10:00N 01°16' E 103°54'2 4.3
2018-Jan-18 09:30N 01°14' E 103°54'510.1
2018-Jan-18 09:00N 01°10' E 103°50'613.0
2018-Jan-18 08:30N 01°06' E 103°45'714.9
2018-Jan-18 08:00N 01°03' E 103°38'714.3
2018-Jan-18 07:30N 01°07' E 103°32'814.5
2018-Jan-18 06:57N 01°11' E 103°25'  
Track history (hours):
 
Tides and Currents Weather Stations Pressure Air Temp Water Temp Dewpoint Dewpoint Depression Visibility Wind Speed Wind Dir Waves Ship Positions

BBC Weser

Last reported at 2018-Jan-24 11:02 UTC. Time now 2018-Feb-23 22:03 UTC.
Position N 23°50' E 119°55'.
Warning: this ship's position is 30 days out of date.

Length 143 m; draft 8.8 m.

Type: Ship. MMSI: 304968000.

Date/timePositionNaut miles runAvg speedWind from/ knotsBaromVisibWave heightAir tempDewpointWater temp
2018-Jan-24 11:02N 23°50' E 119°55'0 6.5
2018-Jan-24 11:00N 23°50' E 119°55'4 7.3
2018-Jan-24 10:30N 23°46' E 119°55'4 7.2
2018-Jan-24 10:00N 23°42' E 119°55'8 8.7
2018-Jan-24 09:02N 23°34' E 119°55'0 9.9
2018-Jan-24 09:00N 23°34' E 119°55'711.0
2018-Jan-24 08:21N 23°26' E 119°54'511.9
2018-Jan-24 07:58N 23°22' E 119°53'  
2018-Jan-19 07:16N 01°16' E 104°10'514.7
2018-Jan-19 06:55N 01°15' E 104°05'613.8
2018-Jan-19 06:30N 01°14' E 103°59'5 9.1
2018-Jan-19 05:57N 01°15' E 103°54'2 1.1
2018-Jan-19 04:29N 01°16' E 103°53'0 0.1
2018-Jan-19 03:50N 01°16' E 103°53'0 0.1
2018-Jan-19 03:14N 01°16' E 103°53'0 0.0
2018-Jan-19 02:56N 01°16' E 103°53'0 0.0
2018-Jan-19 02:26N 01°16' E 103°53'0 0.0
2018-Jan-19 01:53N 01°16' E 103°53'0 0.0
2018-Jan-19 01:20N 01°16' E 103°53'0 0.0
2018-Jan-19 00:50N 01°16' E 103°53'0 0.0
2018-Jan-19 00:14N 01°16' E 103°53'0 0.0
2018-Jan-18 23:59N 01°16' E 103°53'0 0.0
2018-Jan-18 23:02N 01°16' E 103°53'0 0.0
2018-Jan-18 22:53N 01°16' E 103°53'0 0.0
2018-Jan-18 21:38N 01°16' E 103°53'0 0.0
2018-Jan-18 21:29N 01°16' E 103°53'0 0.0
2018-Jan-18 20:59N 01°16' E 103°53'0 0.0
2018-Jan-18 19:50N 01°16' E 103°53'0 0.0
2018-Jan-18 19:29N 01°16' E 103°53'0 0.0
2018-Jan-18 18:56N 01°16' E 103°53'0 0.0
2018-Jan-18 18:20N 01°16' E 103°53'0 0.0
2018-Jan-18 17:59N 01°16' E 103°53'0 0.0
2018-Jan-18 16:50N 01°16' E 103°53'0 0.0
2018-Jan-18 16:26N 01°16' E 103°53'0 0.0
2018-Jan-18 15:44N 01°16' E 103°53'0 0.0
2018-Jan-18 14:50N 01°16' E 103°53'0 0.0
2018-Jan-18 13:56N 01°16' E 103°53'0 0.0
2018-Jan-18 13:26N 01°16' E 103°53'0 0.0
2018-Jan-18 12:56N 01°16' E 103°53'0 0.1
2018-Jan-18 11:11N 01°16' E 103°53'0 0.1
2018-Jan-18 10:38N 01°16' E 103°53'0 0.1
2018-Jan-18 10:26N 01°16' E 103°53'0 0.8
2018-Jan-18 10:00N 01°16' E 103°54'2 4.3
2018-Jan-18 09:30N 01°14' E 103°54'510.1
2018-Jan-18 09:00N 01°10' E 103°50'613.0
2018-Jan-18 08:30N 01°06' E 103°45'714.9
2018-Jan-18 08:00N 01°03' E 103°38'714.3
2018-Jan-18 07:30N 01°07' E 103°32'814.5
2018-Jan-18 06:57N 01°11' E 103°25'  

Dump ship's entire track history